createdAt,value
2022-12-09T00:00:31.167Z,22.08
2022-12-09T00:02:58.922Z,24.95
2022-12-09T00:05:26.060Z,21.88
2022-12-09T00:07:52.929Z,22.48
2022-12-09T00:10:19.812Z,21.98
2022-12-09T00:12:46.736Z,24.13
2022-12-09T00:15:13.565Z,23.95
2022-12-09T00:17:40.456Z,23.75
2022-12-09T00:20:08.461Z,20.92
2022-12-09T00:22:35.455Z,20.15
2022-12-09T00:25:02.287Z,24.55
2022-12-09T00:27:29.194Z,21.75
2022-12-09T00:29:56.059Z,22.08
2022-12-09T00:32:23.056Z,25.67
2022-12-09T00:34:49.961Z,22.75
2022-12-09T00:37:17.067Z,18.80
2022-12-09T00:39:43.984Z,21.70
2022-12-09T00:42:10.812Z,23.90
2022-12-09T00:44:37.834Z,21.80
2022-12-09T00:47:04.952Z,23.80
2022-12-09T00:49:31.810Z,21.05
2022-12-09T00:51:58.610Z,26.70
2022-12-09T00:54:25.537Z,22.77
2022-12-09T00:56:52.635Z,22.92
2022-12-09T00:59:19.611Z,22.30
2022-12-09T01:01:46.615Z,22.77
2022-12-09T01:04:14.033Z,24.27
2022-12-09T01:06:41.729Z,23.00
2022-12-09T01:09:09.053Z,23.65
2022-12-09T01:11:36.652Z,20.77
2022-12-09T01:14:04.153Z,20.83
2022-12-09T01:16:33.888Z,22.23
2022-12-09T01:19:04.560Z,30.42
2022-12-09T01:21:32.604Z,28.77
2022-12-09T01:23:59.682Z,22.75
2022-12-09T01:26:27.129Z,23.38
2022-12-09T01:28:55.652Z,25.90
2022-12-09T01:31:25.218Z,25.95
2022-12-09T01:33:54.265Z,23.08
2022-12-09T01:36:26.885Z,25.92
2022-12-09T01:38:54.673Z,23.75
2022-12-09T01:41:22.729Z,28.75
2022-12-09T01:44:18.939Z,26.55
2022-12-09T01:46:46.925Z,19.13
2022-12-09T01:49:22.172Z,21.75
2022-12-09T01:51:56.959Z,23.52
2022-12-09T01:54:24.102Z,26.40
2022-12-09T01:56:51.675Z,27.90
2022-12-09T01:59:18.662Z,22.13
2022-12-09T02:01:50.258Z,20.75
2022-12-09T02:04:17.815Z,29.30
2022-12-09T02:06:45.071Z,25.50
2022-12-09T02:09:12.190Z,17.85
2022-12-09T02:12:01.116Z,28.20
2022-12-09T02:14:37.169Z,22.15
2022-12-09T02:17:34.968Z,22.98
2022-12-09T02:20:05.781Z,24.67
2022-12-09T02:23:08.833Z,30.35
2022-12-09T02:25:49.782Z,24.20
2022-12-09T02:28:28.486Z,19.55
2022-12-09T02:31:14.329Z,23.95
2022-12-09T02:33:59.493Z,28.65
2022-12-09T02:36:30.465Z,36.30
2022-12-09T02:38:59.515Z,25.42
2022-12-09T02:41:29.850Z,24.38
2022-12-09T02:44:12.566Z,28.63
2022-12-09T02:46:41.154Z,21.45
2022-12-09T02:49:08.704Z,24.58
2022-12-09T02:51:42.407Z,29.58
2022-12-09T02:54:13.662Z,23.17
2022-12-09T02:56:45.706Z,22.13
2022-12-09T02:59:12.849Z,25.02
2022-12-09T03:01:48.475Z,27.70
2022-12-09T03:04:21.461Z,28.52
2022-12-09T03:06:53.114Z,23.10
2022-12-09T03:09:29.410Z,23.25
2022-12-09T03:12:01.354Z,27.92
2022-12-09T03:14:36.664Z,22.80
2022-12-09T03:17:20.282Z,26.52
2022-12-09T03:19:54.862Z,26.58
2022-12-09T03:22:26.472Z,24.25
2022-12-09T03:25:14.166Z,21.02
2022-12-09T03:27:46.713Z,24.13
2022-12-09T03:30:16.166Z,23.80
2022-12-09T03:32:45.170Z,26.10
2022-12-09T03:35:23.627Z,24.58
2022-12-09T03:37:51.870Z,28.52
2022-12-09T03:40:28.441Z,28.88
2022-12-09T03:43:13.348Z,25.13
2022-12-09T03:45:41.632Z,25.10
2022-12-09T03:48:09.727Z,24.30
2022-12-09T03:50:48.472Z,32.10
2022-12-09T03:53:25.137Z,31.65
2022-12-09T03:56:01.367Z,25.55
2022-12-09T03:58:30.128Z,33.58
2022-12-09T04:00:57.426Z,24.88
2022-12-09T04:03:24.456Z,22.88
2022-12-09T04:05:51.459Z,27.17
2022-12-09T04:08:18.342Z,25.60
2022-12-09T04:10:45.290Z,28.92
2022-12-09T04:13:12.437Z,23.50
2022-12-09T04:15:39.307Z,24.60
2022-12-09T04:18:06.484Z,23.55
2022-12-09T04:20:33.471Z,18.60
2022-12-09T04:23:00.325Z,24.25
2022-12-09T04:25:27.512Z,27.80
2022-12-09T04:27:54.457Z,26.35
2022-12-09T04:30:21.917Z,25.45
2022-12-09T04:32:49.265Z,26.70
2022-12-09T04:35:16.335Z,27.75
2022-12-09T04:37:43.269Z,27.17
2022-12-09T04:40:11.264Z,28.25
2022-12-09T04:42:38.466Z,25.55
2022-12-09T04:45:06.220Z,23.98
2022-12-09T04:47:34.442Z,23.80
2022-12-09T04:50:01.542Z,21.92
2022-12-09T04:52:28.437Z,26.60
2022-12-09T04:54:55.758Z,27.50
2022-12-09T04:57:23.035Z,29.02
2022-12-09T04:59:49.812Z,22.70
2022-12-09T05:02:16.979Z,30.40
2022-12-09T05:04:46.757Z,23.30
2022-12-09T05:07:14.718Z,26.77
2022-12-09T05:09:41.855Z,24.98
2022-12-09T05:12:08.956Z,25.35
2022-12-09T05:14:36.250Z,26.83
2022-12-09T05:17:04.434Z,24.45
2022-12-09T05:19:31.654Z,30.27
2022-12-09T05:21:58.854Z,24.23
2022-12-09T05:24:26.067Z,23.77
2022-12-09T05:26:53.102Z,20.38
2022-12-09T05:29:23.011Z,27.00
2022-12-09T05:31:51.684Z,26.17
2022-12-09T05:34:19.312Z,24.98
2022-12-09T05:36:46.855Z,28.10
2022-12-09T05:39:13.999Z,32.50
2022-12-09T05:41:41.185Z,26.70
2022-12-09T05:44:08.287Z,24.42
2022-12-09T05:46:35.312Z,24.75
2022-12-09T05:49:02.914Z,29.85
2022-12-09T05:51:30.639Z,29.40
2022-12-09T05:54:01.305Z,23.85
2022-12-09T05:56:29.063Z,29.10
2022-12-09T05:58:56.534Z,27.20
2022-12-09T06:01:24.987Z,28.38
2022-12-09T06:03:53.219Z,25.48
2022-12-09T06:06:23.023Z,27.85
2022-12-09T06:08:50.153Z,24.85
2022-12-09T06:11:21.935Z,28.17
2022-12-09T06:13:50.075Z,20.38
2022-12-09T06:16:21.767Z,26.88
2022-12-09T06:18:50.369Z,25.88
2022-12-09T06:21:19.295Z,27.40
2022-12-09T06:23:47.080Z,25.98
2022-12-09T06:26:23.057Z,25.27
2022-12-09T06:28:50.227Z,19.80
2022-12-09T06:31:18.118Z,22.60
2022-12-09T06:33:55.496Z,24.15
2022-12-09T06:36:23.642Z,26.48
2022-12-09T06:38:50.764Z,24.65
2022-12-09T06:41:17.921Z,24.63
2022-12-09T06:43:45.449Z,27.73
2022-12-09T06:46:15.447Z,24.42
2022-12-09T06:48:42.801Z,25.17
2022-12-09T06:51:10.453Z,30.00
2022-12-09T06:53:37.486Z,30.13
2022-12-09T06:56:11.524Z,28.77
2022-12-09T06:58:40.569Z,30.88
2022-12-09T07:01:22.155Z,25.58
2022-12-09T07:03:56.210Z,24.77
2022-12-09T07:06:38.533Z,29.48
2022-12-09T07:09:12.299Z,26.00
2022-12-09T07:11:40.495Z,23.45
2022-12-09T07:14:08.087Z,24.10
2022-12-09T07:16:35.996Z,28.17
2022-12-09T07:19:04.284Z,26.20
2022-12-09T07:21:31.557Z,22.95
2022-12-09T07:24:03.131Z,26.05
2022-12-09T07:26:32.765Z,26.50
2022-12-09T07:29:02.964Z,25.60
2022-12-09T07:31:30.208Z,29.52
2022-12-09T07:33:58.920Z,22.80
2022-12-09T07:36:28.130Z,28.35
2022-12-09T07:39:00.221Z,24.50
2022-12-09T07:41:28.220Z,26.90
2022-12-09T07:43:55.816Z,28.45
2022-12-09T07:46:24.320Z,26.40
2022-12-09T07:48:51.896Z,26.77
2022-12-09T07:51:19.321Z,28.48
2022-12-09T07:53:47.180Z,22.38
2022-12-09T07:56:16.327Z,27.80
2022-12-09T07:58:44.602Z,21.73
2022-12-09T08:01:14.162Z,23.65
2022-12-09T08:03:42.553Z,33.28
2022-12-09T08:06:15.103Z,31.70
2022-12-09T08:08:44.010Z,30.42
2022-12-09T08:11:13.796Z,31.65
2022-12-09T08:13:42.439Z,32.42
2022-12-09T08:16:11.764Z,23.58
2022-12-09T08:18:39.334Z,29.83
2022-12-09T08:21:21.931Z,25.08
2022-12-09T08:23:50.117Z,34.25
2022-12-09T08:26:20.659Z,31.42
2022-12-09T08:28:48.733Z,31.55
2022-12-09T08:31:24.888Z,33.92
2022-12-09T08:33:53.025Z,35.05
2022-12-09T08:36:23.143Z,35.22
2022-12-09T08:38:50.256Z,28.35
2022-12-09T08:41:22.242Z,34.35
2022-12-09T08:43:49.403Z,36.10
2022-12-09T08:46:16.421Z,37.22
2022-12-09T08:48:43.773Z,27.42
2022-12-09T08:51:12.278Z,35.30
2022-12-09T08:53:40.053Z,32.70
2022-12-09T08:56:15.540Z,34.72
2022-12-09T08:58:43.216Z,32.88
2022-12-09T09:01:22.675Z,35.28
2022-12-09T09:03:50.847Z,31.35
2022-12-09T09:06:19.176Z,31.45
2022-12-09T09:08:46.802Z,30.80
2022-12-09T09:11:17.701Z,34.05
2022-12-09T09:13:46.935Z,31.23
2022-12-09T09:16:19.373Z,42.75
2022-12-09T09:18:46.614Z,28.73
2022-12-09T09:21:16.893Z,36.90
2022-12-09T09:23:44.795Z,30.90
2022-12-09T09:26:23.685Z,35.78
2022-12-09T09:28:51.019Z,35.17
2022-12-09T09:31:21.455Z,35.80
2022-12-09T09:33:49.772Z,31.13
2022-12-09T09:36:22.778Z,41.80
2022-12-09T09:38:53.137Z,38.80
2022-12-09T09:41:42.714Z,40.13
2022-12-09T09:44:28.108Z,35.55
2022-12-09T09:46:57.399Z,39.35
2022-12-09T09:49:45.606Z,48.45
2022-12-09T09:52:21.841Z,38.55
2022-12-09T09:54:48.789Z,37.95
2022-12-09T09:57:22.157Z,31.05
2022-12-09T10:00:09.793Z,36.22
2022-12-09T10:02:55.938Z,38.15
2022-12-09T10:05:34.453Z,35.85
2022-12-09T10:08:23.726Z,40.42
2022-12-09T10:11:12.956Z,38.78
2022-12-09T10:14:15.254Z,41.22
2022-12-09T10:16:50.647Z,38.53
2022-12-09T10:19:44.487Z,32.50
2022-12-09T10:22:19.649Z,34.55
2022-12-09T10:24:53.498Z,41.60
2022-12-09T10:27:38.177Z,35.67
2022-12-09T10:30:12.026Z,50.78
2022-12-09T10:32:40.541Z,35.42
2022-12-09T10:35:16.654Z,43.22
2022-12-09T10:37:43.880Z,36.58
2022-12-09T10:40:11.951Z,36.08
2022-12-09T10:43:03.850Z,41.58
2022-12-09T10:45:52.653Z,41.40
2022-12-09T10:48:37.581Z,41.88
2022-12-09T10:51:15.093Z,48.22
2022-12-09T10:53:48.913Z,45.40
2022-12-09T10:56:29.039Z,39.45
2022-12-09T10:59:27.267Z,39.42
2022-12-09T11:01:58.670Z,43.25
2022-12-09T11:04:28.689Z,42.97
2022-12-09T11:07:14.929Z,39.55
2022-12-09T11:09:48.187Z,39.97
2022-12-09T11:12:41.241Z,38.25
2022-12-09T11:15:35.370Z,43.08
2022-12-09T11:18:15.017Z,36.88
2022-12-09T11:20:42.285Z,39.85
2022-12-09T11:23:12.330Z,40.97
2022-12-09T11:25:56.416Z,40.67
2022-12-09T11:28:28.416Z,44.17
2022-12-09T11:31:27.754Z,33.85
2022-12-09T11:34:15.824Z,39.15
2022-12-09T11:36:54.373Z,39.00
2022-12-09T11:39:25.903Z,38.90
2022-12-09T11:42:17.692Z,38.42
2022-12-09T11:44:59.295Z,37.35
2022-12-09T11:48:13.569Z,36.65
2022-12-09T11:50:31.332Z,46.67
2022-12-09T11:53:10.783Z,43.35
2022-12-09T11:55:51.306Z,38.03
2022-12-09T11:58:49.774Z,42.47
2022-12-09T12:01:23.528Z,36.60
2022-12-09T12:04:05.311Z,33.72
2022-12-09T12:06:46.582Z,38.47
2022-12-09T12:09:23.896Z,36.65
2022-12-09T12:12:13.935Z,33.28
2022-12-09T12:14:43.482Z,37.00
2022-12-09T12:17:43.218Z,42.42
2022-12-09T12:20:14.256Z,34.15
2022-12-09T12:23:01.255Z,36.38
2022-12-09T12:26:02.023Z,39.58
2022-12-09T12:28:50.531Z,44.95
2022-12-09T12:31:45.252Z,34.83
2022-12-09T12:34:27.748Z,37.22
2022-12-09T12:36:57.298Z,38.13
2022-12-09T12:39:38.077Z,35.45
2022-12-09T12:42:20.289Z,38.97
2022-12-09T12:45:18.298Z,41.55
2022-12-09T12:47:53.304Z,31.23
2022-12-09T12:50:51.758Z,34.33
2022-12-09T12:53:18.491Z,38.95
2022-12-09T12:55:59.758Z,38.33
2022-12-09T12:58:54.479Z,33.15
2022-12-09T13:01:33.648Z,38.72
2022-12-09T13:04:31.636Z,40.58
2022-12-09T13:07:24.320Z,43.67
2022-12-09T13:10:02.598Z,35.55
2022-12-09T13:13:01.705Z,46.55
2022-12-09T13:15:41.880Z,38.75
2022-12-09T13:18:23.595Z,34.85
2022-12-09T13:20:55.404Z,40.15
2022-12-09T13:23:41.073Z,46.53
2022-12-09T13:26:32.128Z,42.03
2022-12-09T13:29:10.968Z,38.22
2022-12-09T13:31:48.813Z,39.58
2022-12-09T13:34:38.937Z,38.95
2022-12-09T13:37:25.803Z,46.88
2022-12-09T13:39:55.931Z,31.88
2022-12-09T13:42:46.336Z,37.38
2022-12-09T13:45:37.098Z,38.80
2022-12-09T13:48:23.902Z,38.70
2022-12-09T13:50:56.099Z,28.20
2022-12-09T13:53:33.843Z,41.22
2022-12-09T13:56:22.011Z,41.88
2022-12-09T13:59:11.230Z,39.67
2022-12-09T14:01:53.348Z,52.75
2022-12-09T14:04:25.831Z,51.38
2022-12-09T14:06:57.989Z,48.08
2022-12-09T14:09:44.580Z,42.13
2022-12-09T14:12:32.687Z,50.47
2022-12-09T14:15:25.536Z,41.97
2022-12-09T14:17:52.350Z,59.47
2022-12-09T14:20:23.854Z,46.22
2022-12-09T14:23:04.923Z,42.78
2022-12-09T14:25:34.480Z,47.22
2022-12-09T14:28:10.140Z,41.28
2022-12-09T14:30:52.537Z,36.00
2022-12-09T14:33:31.113Z,43.10
2022-12-09T14:36:20.117Z,47.88
2022-12-09T14:39:23.035Z,35.28
2022-12-09T14:42:13.142Z,40.05
2022-12-09T14:45:11.899Z,35.40
2022-12-09T14:47:43.579Z,40.70
2022-12-09T14:50:20.019Z,37.67
2022-12-09T14:53:02.612Z,39.53
2022-12-09T14:55:40.241Z,44.75
2022-12-09T14:58:07.054Z,46.70
2022-12-09T15:00:40.904Z,51.85
2022-12-09T15:03:45.435Z,53.47
2022-12-09T15:06:17.881Z,46.42
2022-12-09T15:08:45.182Z,52.63
2022-12-09T15:11:21.973Z,45.03
2022-12-09T15:13:52.097Z,48.38
2022-12-09T15:16:23.486Z,47.70
2022-12-09T15:18:52.086Z,45.03
2022-12-09T15:21:30.590Z,46.28
2022-12-09T15:23:59.130Z,42.30
2022-12-09T15:26:29.116Z,44.03
2022-12-09T15:28:57.500Z,43.75
2022-12-09T15:31:27.085Z,46.33
2022-12-09T15:33:59.341Z,44.80
2022-12-09T15:36:39.167Z,47.33
2022-12-09T15:39:07.791Z,46.58
2022-12-09T15:42:02.029Z,49.25
2022-12-09T15:44:36.244Z,46.10
2022-12-09T15:47:10.528Z,40.88
2022-12-09T15:50:00.854Z,53.47
2022-12-09T15:52:46.150Z,45.70
2022-12-09T15:55:17.858Z,45.25
2022-12-09T15:57:46.154Z,50.65
2022-12-09T16:00:13.875Z,50.42
2022-12-09T16:02:41.319Z,46.20
2022-12-09T16:05:10.439Z,42.75
2022-12-09T16:07:38.189Z,46.40
2022-12-09T16:10:12.628Z,45.15
2022-12-09T16:12:40.960Z,52.10
2022-12-09T16:15:14.050Z,45.30
2022-12-09T16:17:55.622Z,41.80
2022-12-09T16:20:33.424Z,53.20
2022-12-09T16:23:01.666Z,46.45
2022-12-09T16:25:34.837Z,51.72
2022-12-09T16:28:04.291Z,50.28
2022-12-09T16:30:34.497Z,45.53
2022-12-09T16:33:14.168Z,49.95
2022-12-09T16:35:45.637Z,48.38
2022-12-09T16:38:16.341Z,54.15
2022-12-09T16:40:46.453Z,56.97
2022-12-09T16:43:16.459Z,49.35
2022-12-09T16:45:48.848Z,66.85
2022-12-09T16:48:17.322Z,45.58
2022-12-09T16:50:49.352Z,44.50
2022-12-09T16:53:23.323Z,50.40
2022-12-09T16:55:52.928Z,45.55
2022-12-09T16:58:19.776Z,46.88
2022-12-09T17:00:47.476Z,50.58
2022-12-09T17:03:26.229Z,52.00
2022-12-09T17:05:53.004Z,46.53
2022-12-09T17:08:20.345Z,51.88
2022-12-09T17:10:47.191Z,58.05
2022-12-09T17:13:14.061Z,45.78
2022-12-09T17:15:42.198Z,62.65
2022-12-09T17:18:10.354Z,55.13
2022-12-09T17:20:38.248Z,57.88
2022-12-09T17:23:05.445Z,50.03
2022-12-09T17:25:33.361Z,59.72
2022-12-09T17:28:05.229Z,56.95
2022-12-09T17:30:32.134Z,58.05
2022-12-09T17:32:59.897Z,53.92
2022-12-09T17:35:27.219Z,54.50
2022-12-09T17:37:54.139Z,68.45
2022-12-09T17:40:21.069Z,53.83
2022-12-09T17:42:47.932Z,49.83
2022-12-09T17:45:15.819Z,52.42
2022-12-09T17:47:42.617Z,52.35
2022-12-09T17:50:10.037Z,56.25
2022-12-09T17:52:37.091Z,54.60
2022-12-09T17:55:04.372Z,53.92
2022-12-09T17:57:31.290Z,57.47
2022-12-09T17:59:58.064Z,52.42
2022-12-09T18:02:25.094Z,53.25
2022-12-09T18:04:52.058Z,62.10
2022-12-09T18:07:18.936Z,53.83
2022-12-09T18:09:48.676Z,53.20
2022-12-09T18:12:19.766Z,50.95
2022-12-09T18:14:46.628Z,56.28
2022-12-09T18:17:13.516Z,56.47
2022-12-09T18:19:40.468Z,50.80
2022-12-09T18:22:07.388Z,65.07
2022-12-09T18:24:34.295Z,55.00
2022-12-09T18:27:01.238Z,58.60
2022-12-09T18:29:28.176Z,55.10
2022-12-09T18:31:58.531Z,64.05
2022-12-09T18:34:27.426Z,59.40
2022-12-09T18:36:55.051Z,53.72
2022-12-09T18:39:22.276Z,58.65
2022-12-09T18:41:49.305Z,60.65
2022-12-09T18:44:16.618Z,68.13
2022-12-09T18:46:49.393Z,66.57
2022-12-09T18:49:17.651Z,61.50
2022-12-09T18:51:45.827Z,61.72
2022-12-09T18:54:18.094Z,57.08
2022-12-09T18:56:45.119Z,57.65
2022-12-09T18:59:12.124Z,64.90
2022-12-09T19:01:42.216Z,63.92
2022-12-09T19:04:14.098Z,66.43
2022-12-09T19:06:42.993Z,63.00
2022-12-09T19:09:16.703Z,73.57
2022-12-09T19:11:46.738Z,56.53
2022-12-09T19:14:14.388Z,58.22
2022-12-09T19:16:42.554Z,72.07
2022-12-09T19:19:12.648Z,68.30
2022-12-09T19:21:39.924Z,69.35
2022-12-09T19:24:08.331Z,66.80
2022-12-09T19:26:36.628Z,67.53
2022-12-09T19:29:06.462Z,66.72
2022-12-09T19:31:40.212Z,71.90
2022-12-09T19:34:17.190Z,74.13
2022-12-09T19:36:45.843Z,71.65
2022-12-09T19:39:14.096Z,62.75
2022-12-09T19:41:41.900Z,77.38
2022-12-09T19:44:21.612Z,69.35
2022-12-09T19:46:58.321Z,71.18
2022-12-09T19:49:25.289Z,68.32
2022-12-09T19:51:52.871Z,75.30
2022-12-09T19:54:26.708Z,62.83
2022-12-09T19:56:55.318Z,63.05
2022-12-09T19:59:22.157Z,69.60
2022-12-09T20:01:49.001Z,71.85
2022-12-09T20:04:47.644Z,66.63
2022-12-09T20:07:08.299Z,67.95
2022-12-09T20:09:36.926Z,66.57
2022-12-09T20:12:04.105Z,67.15
2022-12-09T20:14:30.900Z,66.93
2022-12-09T20:16:57.746Z,74.68
2022-12-09T20:19:24.740Z,73.47
2022-12-09T20:21:51.693Z,71.78
2022-12-09T20:24:19.440Z,63.30
2022-12-09T20:26:46.361Z,63.50
2022-12-09T20:29:13.394Z,72.95
2022-12-09T20:31:41.547Z,67.03
2022-12-09T20:34:12.700Z,67.93
2022-12-09T20:36:41.232Z,64.38
2022-12-09T20:39:14.943Z,77.80
2022-12-09T20:41:42.430Z,67.97
2022-12-09T20:44:10.714Z,60.05
2022-12-09T20:46:39.148Z,66.97
2022-12-09T20:49:06.272Z,70.40
2022-12-09T20:51:39.326Z,74.72
2022-12-09T20:54:07.408Z,70.47
2022-12-09T20:56:35.687Z,71.25
2022-12-09T20:59:03.364Z,75.00
2022-12-09T21:01:33.094Z,74.85
2022-12-09T21:04:01.363Z,78.20
2022-12-09T21:06:32.005Z,61.08
2022-12-09T21:09:04.284Z,69.20
2022-12-09T21:11:32.453Z,71.38
2022-12-09T21:14:01.308Z,71.78
2022-12-09T21:16:30.712Z,76.88
2022-12-09T21:19:05.736Z,72.13
2022-12-09T21:21:35.799Z,74.70
2022-12-09T21:24:03.798Z,75.43
2022-12-09T21:26:31.006Z,86.25
2022-12-09T21:29:00.331Z,67.35
2022-12-09T21:31:30.279Z,67.93
2022-12-09T21:33:58.562Z,64.10
2022-12-09T21:36:28.855Z,74.25
2022-12-09T21:38:56.233Z,75.20
2022-12-09T21:41:25.942Z,63.42
2022-12-09T21:43:55.048Z,66.13
2022-12-09T21:46:28.553Z,69.35
2022-12-09T21:49:03.043Z,78.82
2022-12-09T21:51:31.548Z,76.95
2022-12-09T21:53:58.412Z,72.18
2022-12-09T21:56:30.940Z,75.30
2022-12-09T21:58:59.029Z,64.90
2022-12-09T22:01:37.389Z,69.32
2022-12-09T22:04:06.538Z,74.50
2022-12-09T22:06:34.038Z,66.53
2022-12-09T22:09:01.902Z,71.82
2022-12-09T22:11:31.667Z,68.82
2022-12-09T22:14:00.110Z,72.82
2022-12-09T22:16:39.442Z,67.70
2022-12-09T22:19:08.476Z,71.80
2022-12-09T22:21:36.668Z,72.18
2022-12-09T22:24:06.464Z,75.00
2022-12-09T22:26:34.057Z,70.00
2022-12-09T22:29:02.944Z,69.97
2022-12-09T22:31:32.250Z,70.30
2022-12-09T22:34:01.797Z,63.40
2022-12-09T22:36:28.829Z,75.18
2022-12-09T22:38:55.826Z,69.65
2022-12-09T22:41:25.876Z,67.00
2022-12-09T22:43:54.962Z,70.90
2022-12-09T22:46:25.051Z,76.47
2022-12-09T22:48:52.676Z,61.92
2022-12-09T22:51:22.563Z,68.68
2022-12-09T22:53:51.148Z,76.10
2022-12-09T22:56:18.702Z,79.15
2022-12-09T22:58:46.334Z,63.83
2022-12-09T23:01:16.399Z,71.55
2022-12-09T23:03:43.940Z,74.03
2022-12-09T23:06:11.791Z,69.15
2022-12-09T23:08:39.946Z,63.08
2022-12-09T23:11:10.678Z,59.17
2022-12-09T23:13:41.264Z,61.65
2022-12-09T23:16:12.708Z,69.13
2022-12-09T23:18:40.077Z,71.53
2022-12-09T23:21:22.465Z,71.82
2022-12-09T23:23:53.441Z,62.10
2022-12-09T23:26:22.037Z,57.30
2022-12-09T23:28:52.173Z,67.45
2022-12-09T23:31:20.944Z,64.15
2022-12-09T23:33:48.768Z,67.03
2022-12-09T23:36:31.015Z,69.40
2022-12-09T23:38:59.541Z,70.18
2022-12-09T23:41:27.191Z,64.65
2022-12-09T23:43:54.674Z,56.30
2022-12-09T23:46:23.996Z,64.63
2022-12-09T23:48:52.296Z,60.40
2022-12-09T23:51:24.614Z,61.78
2022-12-09T23:53:54.053Z,60.03
2022-12-09T23:56:24.003Z,61.67
2022-12-09T23:58:59.559Z,71.60
